createdAt,value
2019-05-06T00:00:05.644Z,48.14
2019-05-06T00:01:05.633Z,48.14
2019-05-06T00:02:05.639Z,48.98
2019-05-06T00:03:05.610Z,49.80
2019-05-06T00:04:05.610Z,49.67
2019-05-06T00:05:05.590Z,49.39
2019-05-06T00:06:05.578Z,48.98
2019-05-06T00:07:05.580Z,48.98
2019-05-06T00:08:05.556Z,48.98
2019-05-06T00:09:05.547Z,48.98
2019-05-06T00:10:05.858Z,49.29
2019-05-06T00:11:05.523Z,49.18
2019-05-06T00:12:05.522Z,49.39
2019-05-06T00:13:05.511Z,49.69
2019-05-06T00:14:05.490Z,50.10
2019-05-06T00:15:05.479Z,49.69
2019-05-06T00:16:05.468Z,49.90
2019-05-06T00:17:05.466Z,50.10
2019-05-06T00:18:05.448Z,50.09
2019-05-06T00:19:05.435Z,49.39
2019-05-06T00:20:05.430Z,49.18
2019-05-06T00:21:05.413Z,49.69
2019-05-06T00:22:05.430Z,49.90
2019-05-06T00:23:05.393Z,50.10
2019-05-06T00:24:05.382Z,49.37
2019-05-06T00:25:05.496Z,49.88
2019-05-06T00:26:05.359Z,50.21
2019-05-06T00:27:05.348Z,50.82
2019-05-06T00:28:06.159Z,50.21
2019-05-06T00:29:05.326Z,50.21
2019-05-06T00:30:05.316Z,50.62
2019-05-06T00:31:12.845Z,50.42
2019-05-06T00:32:06.313Z,49.18
2019-05-06T00:33:05.292Z,49.18
2019-05-06T00:34:05.271Z,49.59
2019-05-06T00:35:05.261Z,49.29
2019-05-06T00:36:05.250Z,49.90
2019-05-06T00:37:05.239Z,50.01
2019-05-06T00:38:05.237Z,50.42
2019-05-06T00:39:05.221Z,50.52
2019-05-06T00:40:05.204Z,50.52
2019-05-06T00:41:05.200Z,49.39
2019-05-06T00:42:05.188Z,50.10
2019-05-06T00:43:05.182Z,49.18
2019-05-06T00:44:05.161Z,49.39
2019-05-06T00:45:05.149Z,49.39
2019-05-06T00:46:05.140Z,49.90
2019-05-06T00:47:05.129Z,50.31
2019-05-06T00:48:05.159Z,49.67
2019-05-06T00:49:05.107Z,49.67
2019-05-06T00:50:05.095Z,49.18
2019-05-06T00:51:05.084Z,49.29
2019-05-06T00:52:05.075Z,50.82
2019-05-06T00:53:05.077Z,50.82
2019-05-06T00:54:05.055Z,50.93
2019-05-06T00:55:05.041Z,50.09
2019-05-06T00:56:05.032Z,50.59
2019-05-06T00:57:05.046Z,50.42
2019-05-06T00:58:05.018Z,50.93
2019-05-06T00:59:05.010Z,49.37
2019-05-06T01:00:04.986Z,49.67
2019-05-06T01:01:04.978Z,50.31
2019-05-06T01:02:04.963Z,49.59
2019-05-06T01:03:04.953Z,50.80
2019-05-06T01:04:04.952Z,50.59
2019-05-06T01:05:04.931Z,50.39
2019-05-06T01:06:04.924Z,50.62
2019-05-06T01:07:04.911Z,50.62
2019-05-06T01:08:04.898Z,50.70
2019-05-06T01:09:04.896Z,50.80
2019-05-06T01:10:04.878Z,49.26
2019-05-06T01:11:04.867Z,50.39
2019-05-06T01:12:04.855Z,50.62
2019-05-06T01:13:04.843Z,49.69
2019-05-06T01:14:04.841Z,49.59
2019-05-06T01:15:04.823Z,49.88
2019-05-06T01:16:04.811Z,49.26
2019-05-06T01:17:04.799Z,49.69
2019-05-06T01:18:04.791Z,49.59
2019-05-06T01:19:04.864Z,49.77
2019-05-06T01:20:04.767Z,49.98
2019-05-06T01:21:04.755Z,49.57
2019-05-06T01:22:04.780Z,49.49
2019-05-06T01:23:04.736Z,49.80
2019-05-06T01:24:04.732Z,50.01
2019-05-06T01:25:04.713Z,49.49
2019-05-06T01:26:04.701Z,50.52
2019-05-06T01:27:04.690Z,50.21
2019-05-06T01:28:04.680Z,50.52
2019-05-06T01:29:04.682Z,50.10
2019-05-06T01:30:04.659Z,50.52
2019-05-06T01:31:04.646Z,50.42
2019-05-06T01:32:04.635Z,50.62
2019-05-06T01:33:04.624Z,50.82
2019-05-06T01:34:04.621Z,50.42
2019-05-06T01:35:04.824Z,50.62
2019-05-06T01:36:04.639Z,50.31
2019-05-06T01:37:04.580Z,50.31
2019-05-06T01:38:04.569Z,50.21
2019-05-06T01:39:04.571Z,50.70
2019-05-06T01:40:04.546Z,51.03
2019-05-06T01:41:04.538Z,50.82
2019-05-06T01:42:04.602Z,50.10
2019-05-06T01:43:04.514Z,50.31
2019-05-06T01:44:04.515Z,50.72
2019-05-06T01:45:04.780Z,50.42
2019-05-06T01:46:04.764Z,51.03
2019-05-06T01:47:04.474Z,50.21
2019-05-06T01:48:04.462Z,50.62
2019-05-06T01:49:04.486Z,50.42
2019-05-06T01:50:04.575Z,50.72
2019-05-06T01:51:04.428Z,50.52
2019-05-06T01:52:04.423Z,50.52
2019-05-06T01:53:04.973Z,50.95
2019-05-06T01:54:04.400Z,51.15
2019-05-06T01:55:04.869Z,51.36
2019-05-06T01:56:04.374Z,50.23
2019-05-06T01:57:04.702Z,51.05
2019-05-06T01:58:05.096Z,51.05
2019-05-06T01:59:04.734Z,51.67
2019-05-06T02:00:04.881Z,50.85
2019-05-06T02:01:04.323Z,50.85
2019-05-06T02:02:04.539Z,50.13
2019-05-06T02:03:04.297Z,50.64
2019-05-06T02:04:04.623Z,50.31
2019-05-06T02:05:04.829Z,50.34
2019-05-06T02:06:04.848Z,50.95
2019-05-06T02:07:04.253Z,50.95
2019-05-06T02:08:04.250Z,51.26
2019-05-06T02:09:04.661Z,51.15
2019-05-06T02:10:04.229Z,51.26
2019-05-06T02:11:04.217Z,51.39
2019-05-06T02:12:04.714Z,50.85
2019-05-06T02:13:04.191Z,50.23
2019-05-06T02:14:04.897Z,51.26
2019-05-06T02:15:04.214Z,51.87
2019-05-06T02:16:04.153Z,51.05
2019-05-06T02:17:04.143Z,52.08
2019-05-06T02:18:04.311Z,52.10
2019-05-06T02:19:04.361Z,51.48
2019-05-06T02:20:04.314Z,50.74
2019-05-06T02:21:05.420Z,51.18
2019-05-06T02:22:04.360Z,51.36
2019-05-06T02:23:04.280Z,51.79
2019-05-06T02:24:04.320Z,51.59
2019-05-06T02:25:04.581Z,51.18
2019-05-06T02:26:04.875Z,52.31
2019-05-06T02:27:04.509Z,52.51
2019-05-06T02:28:04.109Z,52.64
2019-05-06T02:29:04.347Z,52.44
2019-05-06T02:30:05.534Z,51.72
2019-05-06T02:31:05.338Z,52.12
2019-05-06T02:32:17.114Z,52.33
2019-05-06T02:33:04.968Z,52.44
2019-05-06T02:34:05.105Z,52.25
2019-05-06T02:35:05.139Z,52.84
2019-05-06T02:36:06.484Z,52.54
2019-05-06T02:37:06.299Z,52.33
2019-05-06T02:38:04.808Z,52.46
2019-05-06T02:39:03.906Z,52.76
2019-05-06T02:40:04.416Z,52.66
2019-05-06T02:41:03.935Z,52.36
2019-05-06T02:42:04.217Z,52.66
2019-05-06T02:43:03.872Z,53.08
2019-05-06T02:44:03.907Z,53.79
2019-05-06T02:45:04.223Z,53.51
2019-05-06T02:46:04.457Z,53.30
2019-05-06T02:47:03.818Z,53.38
2019-05-06T02:48:04.627Z,53.72
2019-05-06T02:49:03.991Z,53.72
2019-05-06T02:50:04.726Z,53.72
2019-05-06T02:51:04.092Z,54.43
2019-05-06T02:52:03.762Z,54.23
2019-05-06T02:53:03.759Z,54.13
2019-05-06T02:54:03.747Z,53.92
2019-05-06T02:55:06.384Z,53.92
2019-05-06T02:56:04.296Z,54.43
2019-05-06T02:57:04.405Z,53.81
2019-05-06T02:58:03.703Z,53.92
2019-05-06T02:59:04.094Z,53.92
2019-05-06T03:00:05.094Z,53.72
2019-05-06T03:01:04.041Z,54.23
2019-05-06T03:02:03.772Z,55.15
2019-05-06T03:03:03.638Z,53.72
2019-05-06T03:04:04.600Z,54.95
2019-05-06T03:05:04.406Z,55.05
2019-05-06T03:06:04.286Z,55.08
2019-05-06T03:07:03.970Z,55.28
2019-05-06T03:08:03.589Z,54.77
2019-05-06T03:09:03.575Z,55.18
2019-05-06T03:10:04.110Z,55.08
2019-05-06T03:11:04.297Z,54.15
2019-05-06T03:12:04.026Z,53.94
2019-05-06T03:13:03.534Z,55.90
2019-05-06T03:14:03.592Z,55.79
2019-05-06T03:15:03.633Z,55.28
2019-05-06T03:16:05.770Z,54.97
2019-05-06T03:17:03.887Z,55.69
2019-05-06T03:18:03.483Z,56.00
2019-05-06T03:19:04.294Z,56.41
2019-05-06T03:20:04.356Z,56.31
2019-05-06T03:21:04.047Z,56.34
2019-05-06T03:22:03.589Z,56.64
2019-05-06T03:23:03.863Z,56.23
2019-05-06T03:24:07.452Z,57.06
2019-05-06T03:25:06.399Z,57.16
2019-05-06T03:26:06.396Z,56.34
2019-05-06T03:27:04.455Z,56.54
2019-05-06T03:28:04.143Z,56.54
2019-05-06T03:29:03.396Z,56.23
2019-05-06T03:30:04.140Z,56.64
2019-05-06T03:31:06.897Z,56.85
2019-05-06T03:32:06.739Z,56.23
2019-05-06T03:34:27.753Z,57.26
2019-05-06T03:35:25.790Z,57.57
2019-05-06T03:36:15.373Z,58.70
2019-05-06T03:37:07.257Z,58.59
2019-05-06T03:38:03.970Z,58.80
2019-05-06T03:39:03.257Z,58.80
2019-05-06T03:40:03.318Z,58.80
2019-05-06T03:41:03.368Z,59.31
2019-05-06T03:42:04.526Z,59.45
2019-05-06T03:43:03.217Z,60.17
2019-05-06T03:44:03.469Z,59.93
2019-05-06T03:45:04.136Z,59.75
2019-05-06T03:46:04.277Z,60.17
2019-05-06T03:47:05.668Z,59.86
2019-05-06T03:48:05.962Z,59.45
2019-05-06T03:49:03.820Z,60.09
2019-05-06T03:50:04.600Z,60.37
2019-05-06T03:51:04.060Z,60.06
2019-05-06T03:52:03.165Z,60.09
2019-05-06T03:53:03.411Z,60.47
2019-05-06T03:54:03.410Z,60.06
2019-05-06T03:55:03.855Z,60.47
2019-05-06T03:56:03.538Z,59.96
2019-05-06T03:57:03.256Z,59.34
2019-05-06T03:58:03.818Z,60.17
2019-05-06T03:59:03.032Z,60.78
2019-05-06T04:00:04.642Z,60.78
2019-05-06T04:01:03.693Z,60.61
2019-05-06T04:02:05.313Z,60.78
2019-05-06T04:03:03.293Z,60.81
2019-05-06T04:04:03.714Z,61.53
2019-05-06T04:05:04.012Z,60.78
2019-05-06T04:06:04.500Z,61.74
2019-05-06T04:07:03.535Z,62.25
2019-05-06T04:08:03.864Z,62.35
2019-05-06T04:09:03.581Z,61.84
2019-05-06T04:10:03.808Z,61.33
2019-05-06T04:11:03.254Z,61.63
2019-05-06T04:12:03.589Z,60.81
2019-05-06T04:13:04.097Z,62.25
2019-05-06T04:14:02.966Z,61.43
2019-05-06T04:15:04.078Z,62.46
2019-05-06T04:16:03.716Z,61.84
2019-05-06T04:17:03.408Z,61.94
2019-05-06T04:18:03.839Z,62.66
2019-05-06T04:19:04.131Z,61.77
2019-05-06T04:20:03.989Z,62.38
2019-05-06T04:21:03.759Z,62.35
2019-05-06T04:22:03.665Z,62.25
2019-05-06T04:23:05.975Z,62.15
2019-05-06T04:24:04.073Z,62.35
2019-05-06T04:25:04.061Z,62.35
2019-05-06T04:26:03.568Z,61.94
2019-05-06T04:27:03.242Z,62.15
2019-05-06T04:28:03.075Z,62.35
2019-05-06T04:29:03.860Z,61.74
2019-05-06T04:30:04.696Z,61.22
2019-05-06T04:31:02.849Z,61.74
2019-05-06T04:32:03.462Z,61.94
2019-05-06T04:33:03.294Z,61.43
2019-05-06T04:34:12.639Z,61.53
2019-05-06T04:35:04.425Z,62.35
2019-05-06T04:36:03.609Z,62.66
2019-05-06T04:37:03.507Z,62.56
2019-05-06T04:38:03.120Z,62.46
2019-05-06T04:39:04.097Z,61.84
2019-05-06T04:40:04.503Z,62.46
2019-05-06T04:41:03.065Z,62.35
2019-05-06T04:42:03.450Z,61.63
2019-05-06T04:43:03.550Z,62.46
2019-05-06T04:44:02.998Z,61.63
2019-05-06T04:45:04.560Z,62.46
2019-05-06T04:46:03.083Z,62.25
2019-05-06T04:47:05.064Z,62.66
2019-05-06T04:48:03.543Z,62.35
2019-05-06T04:49:03.967Z,61.43
2019-05-06T04:50:04.915Z,61.53
2019-05-06T04:51:03.285Z,61.33
2019-05-06T04:52:03.592Z,62.02
2019-05-06T04:53:04.959Z,61.30
2019-05-06T04:54:04.198Z,61.09
2019-05-06T04:55:03.367Z,61.09
2019-05-06T04:56:03.879Z,60.78
2019-05-06T04:57:04.993Z,61.81
2019-05-06T04:58:04.042Z,61.51
2019-05-06T04:59:05.747Z,61.81
2019-05-06T05:00:04.197Z,60.99
2019-05-06T05:01:04.085Z,60.68
2019-05-06T05:02:02.755Z,61.30
2019-05-06T05:03:02.995Z,61.19
2019-05-06T05:04:03.561Z,60.68
2019-05-06T05:05:04.085Z,60.45
2019-05-06T05:06:05.640Z,61.07
2019-05-06T05:07:03.372Z,60.75
2019-05-06T05:08:02.532Z,59.83
2019-05-06T05:09:03.006Z,59.73
2019-05-06T05:10:03.512Z,60.65
2019-05-06T05:11:03.552Z,60.03
2019-05-06T05:12:02.838Z,61.07
2019-05-06T05:13:03.543Z,60.86
2019-05-06T05:14:02.930Z,59.73
2019-05-06T05:15:03.272Z,59.80
2019-05-06T05:16:02.410Z,60.01
2019-05-06T05:17:02.383Z,60.31
2019-05-06T05:18:03.196Z,60.01
2019-05-06T05:19:02.771Z,58.26
2019-05-06T05:20:02.273Z,59.77
2019-05-06T05:21:02.513Z,59.98
2019-05-06T05:22:02.845Z,58.13
2019-05-06T05:23:02.330Z,59.06
2019-05-06T05:24:02.194Z,59.06
2019-05-06T05:25:03.423Z,58.72
2019-05-06T05:26:02.908Z,58.21
2019-05-06T05:27:03.163Z,58.31
2019-05-06T05:28:02.230Z,58.41
2019-05-06T05:29:02.814Z,57.70
2019-05-06T05:30:02.252Z,57.77
2019-05-06T05:31:03.065Z,57.98
2019-05-06T05:32:02.246Z,58.46
2019-05-06T05:33:02.627Z,57.75
2019-05-06T05:34:02.246Z,56.92
2019-05-06T05:35:02.217Z,57.03
2019-05-06T05:36:02.227Z,56.82
2019-05-06T05:37:03.032Z,57.20
2019-05-06T05:38:03.070Z,56.07
2019-05-06T05:39:03.321Z,56.56
2019-05-06T05:40:03.014Z,56.43
2019-05-06T05:41:03.068Z,56.13
2019-05-06T05:42:02.966Z,56.02
2019-05-06T05:43:02.876Z,55.82
2019-05-06T05:44:02.422Z,55.69
2019-05-06T05:45:02.687Z,56.00
2019-05-06T05:46:02.933Z,55.79
2019-05-06T05:47:03.459Z,55.69
2019-05-06T05:48:02.860Z,56.38
2019-05-06T05:49:02.856Z,55.64
2019-05-06T05:50:03.032Z,54.31
2019-05-06T05:51:03.350Z,54.18
2019-05-06T05:52:03.390Z,53.57
2019-05-06T05:53:02.453Z,53.64
2019-05-06T05:54:02.304Z,53.13
2019-05-06T05:55:02.721Z,52.83
2019-05-06T05:56:02.557Z,52.29
2019-05-06T05:57:02.402Z,52.50
2019-05-06T05:58:03.232Z,51.04
2019-05-06T05:59:03.341Z,51.76
2019-05-06T06:00:03.905Z,52.37
2019-05-06T06:01:03.994Z,51.84
2019-05-06T06:02:03.835Z,51.63
2019-05-06T06:03:02.942Z,51.84
2019-05-06T06:04:03.039Z,51.61
2019-05-06T06:05:02.512Z,51.20
2019-05-06T06:06:03.043Z,51.20
2019-05-06T06:07:02.654Z,50.59
2019-05-06T06:08:02.910Z,50.67
2019-05-06T06:09:03.151Z,50.56
2019-05-06T06:10:02.679Z,50.87
2019-05-06T06:11:04.129Z,50.77
2019-05-06T06:12:02.745Z,50.36
2019-05-06T06:13:02.166Z,50.67
2019-05-06T06:14:02.974Z,50.44
2019-05-06T06:15:02.249Z,50.23
2019-05-06T06:16:02.885Z,50.13
2019-05-06T06:17:02.015Z,49.93
2019-05-06T06:18:03.002Z,50.13
2019-05-06T06:19:03.194Z,50.34
2019-05-06T06:20:02.651Z,50.62
2019-05-06T06:21:17.072Z,50.01
2019-05-06T06:22:02.796Z,48.99
2019-05-06T06:23:02.928Z,49.29
2019-05-06T06:24:02.779Z,49.60
2019-05-06T06:25:04.254Z,48.89
2019-05-06T06:26:03.948Z,48.66
2019-05-06T06:27:03.055Z,47.66
2019-05-06T06:28:02.676Z,48.66
2019-05-06T06:29:03.287Z,48.58
2019-05-06T06:30:02.419Z,48.89
2019-05-06T06:31:03.044Z,49.07
2019-05-06T06:32:03.112Z,49.50
2019-05-06T06:33:02.547Z,48.38
2019-05-06T06:34:01.994Z,49.17
2019-05-06T06:35:10.824Z,49.29
2019-05-06T06:36:02.851Z,48.86
2019-05-06T06:37:02.585Z,49.68
2019-05-06T06:38:02.738Z,49.78
2019-05-06T06:39:02.153Z,49.48
2019-05-06T06:40:02.572Z,49.07
2019-05-06T06:41:02.715Z,48.56
2019-05-06T06:42:02.844Z,49.07
2019-05-06T06:43:02.171Z,48.76
2019-05-06T06:44:02.280Z,48.66
2019-05-06T06:45:03.538Z,48.74
2019-05-06T06:46:02.518Z,49.04
2019-05-06T06:47:02.065Z,48.94
2019-05-06T06:48:03.153Z,48.43
2019-05-06T06:49:03.103Z,48.54
2019-05-06T06:50:02.763Z,48.43
2019-05-06T06:51:03.290Z,49.04
2019-05-06T06:52:02.801Z,48.43
2019-05-06T06:53:03.091Z,47.82
2019-05-06T06:54:02.510Z,47.52
2019-05-06T06:55:02.339Z,47.31
2019-05-06T06:56:02.053Z,47.70
2019-05-06T06:57:06.125Z,47.80
2019-05-06T06:58:02.683Z,47.50
2019-05-06T06:59:02.587Z,48.21
2019-05-06T07:00:03.884Z,47.60
2019-05-06T07:01:03.154Z,47.31
2019-05-06T07:02:02.736Z,47.52
2019-05-06T07:03:02.729Z,48.21
2019-05-06T07:04:04.686Z,47.82
2019-05-06T07:05:02.477Z,47.31
2019-05-06T07:06:02.364Z,47.11
2019-05-06T07:07:02.937Z,46.30
2019-05-06T07:08:02.179Z,46.60
2019-05-06T07:09:02.709Z,47.21
2019-05-06T07:10:02.700Z,47.11
2019-05-06T07:11:02.224Z,47.31
2019-05-06T07:12:03.320Z,47.31
2019-05-06T07:13:02.944Z,47.64
2019-05-06T07:14:02.643Z,47.13
2019-05-06T07:15:02.349Z,47.74
2019-05-06T07:16:02.911Z,47.85
2019-05-06T07:17:02.467Z,47.72
2019-05-06T07:18:02.314Z,47.62
2019-05-06T07:19:02.963Z,47.52
2019-05-06T07:20:02.865Z,47.42
2019-05-06T07:21:04.119Z,47.21
2019-05-06T07:22:02.830Z,47.21
2019-05-06T07:23:01.940Z,46.09
2019-05-06T07:24:02.144Z,46.17
2019-05-06T07:25:03.735Z,46.37
2019-05-06T07:26:02.842Z,46.48
2019-05-06T07:27:02.892Z,46.07
2019-05-06T07:28:02.814Z,45.97
2019-05-06T07:29:03.937Z,46.20
2019-05-06T07:30:02.982Z,46.28
2019-05-06T07:31:14.907Z,44.95
2019-05-06T07:32:02.628Z,46.36
2019-05-06T07:33:03.461Z,45.75
2019-05-06T07:34:02.511Z,46.15
2019-05-06T07:35:02.218Z,46.89
2019-05-06T07:36:02.157Z,45.15
2019-05-06T07:37:03.254Z,44.63
2019-05-06T07:38:02.378Z,44.93
2019-05-06T07:39:04.125Z,44.53
2019-05-06T07:40:02.885Z,44.81
2019-05-06T07:41:04.184Z,44.10
2019-05-06T07:42:02.476Z,44.51
2019-05-06T07:43:02.285Z,44.30
2019-05-06T07:44:02.150Z,44.10
2019-05-06T07:45:06.134Z,44.51
2019-05-06T07:46:02.547Z,44.18
2019-05-06T07:47:03.355Z,44.28
2019-05-06T07:48:00.505Z,44.59
2019-05-06T07:49:03.006Z,44.08
2019-05-06T07:50:02.415Z,43.96
2019-05-06T07:51:02.882Z,43.75
2019-05-06T07:52:02.743Z,44.46
2019-05-06T07:53:02.365Z,43.67
2019-05-06T07:54:02.649Z,44.28
2019-05-06T07:55:02.380Z,42.96
2019-05-06T07:56:03.490Z,43.67
2019-05-06T07:57:02.407Z,43.87
2019-05-06T07:58:02.394Z,43.16
2019-05-06T07:59:00.382Z,42.96
2019-05-06T08:00:03.128Z,43.69
2019-05-06T08:01:02.721Z,44.26
2019-05-06T08:02:02.299Z,42.54
2019-05-06T08:03:02.428Z,44.26
2019-05-06T08:04:02.507Z,43.75
2019-05-06T08:05:02.425Z,43.37
2019-05-06T08:06:02.517Z,41.93
2019-05-06T08:07:00.294Z,42.35
2019-05-06T08:08:00.282Z,43.16
2019-05-06T08:09:00.271Z,43.04
2019-05-06T08:10:02.195Z,42.13
2019-05-06T08:11:02.488Z,42.11
2019-05-06T08:12:02.643Z,42.09
2019-05-06T08:13:02.498Z,41.91
2019-05-06T08:14:02.201Z,42.31
2019-05-06T08:15:04.464Z,42.39
2019-05-06T08:16:02.258Z,41.97
2019-05-06T08:17:02.277Z,41.56
2019-05-06T08:18:00.174Z,41.36
2019-05-06T08:19:00.164Z,41.99
2019-05-06T08:20:02.520Z,42.49
2019-05-06T08:21:02.357Z,41.99
2019-05-06T08:22:00.128Z,42.29
2019-05-06T08:23:02.000Z,41.91
2019-05-06T08:24:00.111Z,41.30
2019-05-06T08:25:00.103Z,41.50
2019-05-06T08:26:10.110Z,41.80
2019-05-06T08:27:02.900Z,41.38
2019-05-06T08:28:02.248Z,40.45
2019-05-06T08:29:00.050Z,40.85
2019-05-06T08:30:02.435Z,41.85
2019-05-06T08:31:02.230Z,40.33
2019-05-06T08:32:00.021Z,40.73
2019-05-06T08:33:01.799Z,40.94
2019-05-06T08:33:59.996Z,41.12
2019-05-06T08:34:59.985Z,40.61
2019-05-06T08:36:10.519Z,40.29
2019-05-06T08:37:02.461Z,38.46
2019-05-06T08:37:59.952Z,38.06
2019-05-06T08:38:59.959Z,39.50
2019-05-06T08:39:59.930Z,39.68
2019-05-06T08:40:59.927Z,38.59
2019-05-06T08:42:02.666Z,37.29
2019-05-06T08:43:02.061Z,39.19
2019-05-06T08:44:02.352Z,36.96
2019-05-06T08:45:02.083Z,38.68
2019-05-06T08:45:59.887Z,37.65
2019-05-06T08:46:59.854Z,39.28
2019-05-06T08:47:59.842Z,37.35
2019-05-06T08:48:59.833Z,38.37
2019-05-06T08:50:02.196Z,38.08
2019-05-06T08:50:59.829Z,38.48
2019-05-06T08:52:02.230Z,38.08
2019-05-06T08:52:59.788Z,37.99
2019-05-06T08:53:59.783Z,38.32
2019-05-06T08:55:02.277Z,36.88
2019-05-06T08:56:01.885Z,36.94
2019-05-06T08:56:59.744Z,37.27
2019-05-06T08:57:59.733Z,37.37
2019-05-06T08:58:59.724Z,37.07
2019-05-06T08:59:59.714Z,36.74
2019-05-06T09:00:59.711Z,35.90
2019-05-06T09:01:59.687Z,35.30
2019-05-06T09:02:59.677Z,35.11
2019-05-06T09:04:09.541Z,36.14
2019-05-06T09:05:02.974Z,36.24
2019-05-06T09:05:59.676Z,37.37
2019-05-06T09:06:59.633Z,36.15
2019-05-06T09:07:59.623Z,36.83
2019-05-06T09:08:59.615Z,36.59
2019-05-06T09:09:59.605Z,36.27
2019-05-06T09:10:59.590Z,35.85
2019-05-06T09:11:59.592Z,35.53
2019-05-06T09:13:01.924Z,35.93
2019-05-06T09:13:59.559Z,34.41
2019-05-06T09:14:59.545Z,34.62
2019-05-06T09:15:59.537Z,34.82
2019-05-06T09:16:59.550Z,35.65
2019-05-06T09:17:59.513Z,36.77
2019-05-06T09:18:59.508Z,37.08
2019-05-06T09:19:59.492Z,35.66
2019-05-06T09:20:59.480Z,36.49
2019-05-06T09:21:59.478Z,37.01
2019-05-06T09:22:59.461Z,36.30
2019-05-06T09:23:59.449Z,37.34
2019-05-06T09:24:59.436Z,36.04
2019-05-06T09:25:59.432Z,35.72
2019-05-06T09:26:59.421Z,34.66
2019-05-06T09:27:59.404Z,34.84
2019-05-06T09:28:59.393Z,35.01
2019-05-06T09:29:59.380Z,34.10
2019-05-06T09:30:59.370Z,34.62
2019-05-06T09:31:59.372Z,34.44
2019-05-06T09:32:59.347Z,33.34
2019-05-06T09:33:59.380Z,35.28
2019-05-06T09:34:59.327Z,34.67
2019-05-06T09:35:59.346Z,34.89
2019-05-06T09:36:59.394Z,34.67
2019-05-06T09:37:59.297Z,34.12
2019-05-06T09:38:59.282Z,32.78
2019-05-06T09:39:59.276Z,32.14
2019-05-06T09:40:59.260Z,31.63
2019-05-06T09:41:59.303Z,30.31
2019-05-06T09:42:59.241Z,31.39
2019-05-06T09:43:59.227Z,32.32
2019-05-06T09:44:59.222Z,31.85
2019-05-06T09:45:59.205Z,32.67
2019-05-06T09:46:59.204Z,32.89
2019-05-06T09:47:59.184Z,32.70
2019-05-06T09:48:59.173Z,33.93
2019-05-06T09:49:59.162Z,33.34
2019-05-06T09:50:59.167Z,34.15
2019-05-06T09:51:59.150Z,33.56
2019-05-06T09:52:59.128Z,34.69
2019-05-06T09:54:01.549Z,35.19
2019-05-06T09:54:59.128Z,34.99
2019-05-06T09:55:59.104Z,35.01
2019-05-06T09:56:59.126Z,35.02
2019-05-06T09:57:59.074Z,35.92
2019-05-06T09:58:59.063Z,36.00
2019-05-06T09:59:59.051Z,35.66
2019-05-06T10:00:59.045Z,34.94
2019-05-06T10:01:59.041Z,35.78
2019-05-06T10:02:59.029Z,35.70
2019-05-06T10:03:59.007Z,33.92
2019-05-06T10:04:59.001Z,32.70
2019-05-06T10:05:58.989Z,33.11
2019-05-06T10:07:00.069Z,33.11
2019-05-06T10:07:58.975Z,32.64
2019-05-06T10:08:58.955Z,33.56
2019-05-06T10:09:58.943Z,34.69
2019-05-06T10:10:59.877Z,34.99
2019-05-06T10:11:58.919Z,34.91
2019-05-06T10:12:58.922Z,34.91
2019-05-06T10:13:58.900Z,35.01
2019-05-06T10:14:58.888Z,34.82
2019-05-06T10:15:58.879Z,36.04
2019-05-06T10:16:58.869Z,35.94
2019-05-06T10:17:58.863Z,35.14
2019-05-06T10:18:58.871Z,35.75
2019-05-06T10:19:58.832Z,35.75
2019-05-06T10:20:58.821Z,36.15
2019-05-06T10:21:58.813Z,34.77
2019-05-06T10:22:58.808Z,32.57
2019-05-06T10:23:58.830Z,30.38
2019-05-06T10:24:58.802Z,30.84
2019-05-06T10:25:58.767Z,29.60
2019-05-06T10:26:58.754Z,27.26
2019-05-06T10:27:58.754Z,27.82
2019-05-06T10:28:58.733Z,25.70
2019-05-06T10:29:58.723Z,26.64
2019-05-06T10:30:58.711Z,27.66
2019-05-06T10:31:58.699Z,28.09
2019-05-06T10:32:58.700Z,28.72
2019-05-06T10:33:58.688Z,28.63
2019-05-06T10:34:58.669Z,29.45
2019-05-06T10:35:58.657Z,29.58
2019-05-06T10:37:11.509Z,30.97
2019-05-06T10:37:59.649Z,30.30
2019-05-06T10:38:58.626Z,28.21
2019-05-06T10:39:58.615Z,25.85
2019-05-06T10:41:04.068Z,24.21
2019-05-06T10:41:59.607Z,23.38
2019-05-06T10:42:58.596Z,22.96
2019-05-06T10:43:58.578Z,22.75
2019-05-06T10:44:59.393Z,22.14
2019-05-06T10:46:01.185Z,21.21
2019-05-06T10:46:59.568Z,21.96
2019-05-06T10:47:58.559Z,22.01
2019-05-06T10:48:58.516Z,23.23
2019-05-06T10:49:58.506Z,22.56
2019-05-06T10:50:58.498Z,21.36
2019-05-06T10:51:58.504Z,20.76
2019-05-06T10:52:58.479Z,21.19
2019-05-06T10:53:58.478Z,22.60
2019-05-06T10:54:58.469Z,24.25
2019-05-06T10:55:58.443Z,25.48
2019-05-06T10:56:58.434Z,25.52
2019-05-06T10:57:58.422Z,25.96
2019-05-06T10:58:58.419Z,26.67
2019-05-06T10:59:58.402Z,28.30
2019-05-06T11:00:58.389Z,28.13
2019-05-06T11:01:58.377Z,28.44
2019-05-06T11:02:58.370Z,28.93
2019-05-06T11:03:58.367Z,27.25
2019-05-06T11:04:58.352Z,26.54
2019-05-06T11:05:58.337Z,25.73
2019-05-06T11:06:58.323Z,25.76
2019-05-06T11:07:58.316Z,26.28
2019-05-06T11:08:58.317Z,25.90
2019-05-06T11:09:58.292Z,27.44
2019-05-06T11:11:12.449Z,27.35
2019-05-06T11:11:59.289Z,26.96
2019-05-06T11:12:58.259Z,27.47
2019-05-06T11:13:58.264Z,28.30
2019-05-06T11:14:58.238Z,27.98
2019-05-06T11:15:58.232Z,28.99
2019-05-06T11:16:58.215Z,29.61
2019-05-06T11:17:58.206Z,29.42
2019-05-06T11:18:58.204Z,29.02
2019-05-06T11:19:58.185Z,29.03
2019-05-06T11:20:58.171Z,29.95
2019-05-06T11:21:58.162Z,29.36
2019-05-06T11:22:58.166Z,30.98
2019-05-06T11:23:58.183Z,30.88
2019-05-06T11:24:58.127Z,30.90
2019-05-06T11:25:58.117Z,31.41
2019-05-06T11:26:58.105Z,32.13
2019-05-06T11:27:58.095Z,32.04
2019-05-06T11:28:58.084Z,32.65
2019-05-06T11:29:58.085Z,32.65
2019-05-06T11:30:58.063Z,31.85
2019-05-06T11:31:58.053Z,31.49
2019-05-06T11:32:58.043Z,29.59
2019-05-06T11:33:58.030Z,29.91
2019-05-06T11:34:58.062Z,28.96
2019-05-06T11:35:58.007Z,27.44
2019-05-06T11:36:57.998Z,27.11
2019-05-06T11:37:57.986Z,25.89
2019-05-06T11:38:57.974Z,25.56
2019-05-06T11:39:57.972Z,25.56
2019-05-06T11:40:57.955Z,25.06
2019-05-06T11:42:15.275Z,25.74
2019-05-06T11:42:58.944Z,25.22
2019-05-06T11:43:57.921Z,24.43
2019-05-06T11:44:57.918Z,25.04
2019-05-06T11:45:57.898Z,24.86
2019-05-06T11:46:57.919Z,25.27
2019-05-06T11:47:57.876Z,24.29
2019-05-06T11:48:57.863Z,26.01
2019-05-06T11:49:57.864Z,26.22
2019-05-06T11:50:57.842Z,25.83
2019-05-06T11:51:57.831Z,26.54
2019-05-06T11:52:57.853Z,26.86
2019-05-06T11:53:57.810Z,26.35
2019-05-06T11:54:57.817Z,26.77
2019-05-06T11:55:57.790Z,27.70
2019-05-06T11:56:58.597Z,28.10
2019-05-06T11:57:57.768Z,27.72
2019-05-06T11:58:57.754Z,28.13
2019-05-06T11:59:57.754Z,27.93
2019-05-06T12:00:57.756Z,28.55
2019-05-06T12:01:57.739Z,29.16
2019-05-06T12:02:57.713Z,29.36
2019-05-06T12:03:57.708Z,29.98
2019-05-06T12:04:57.732Z,29.99
2019-05-06T12:05:57.677Z,30.10
2019-05-06T12:07:10.379Z,29.41
2019-05-06T12:08:06.947Z,30.43
2019-05-06T12:08:58.644Z,30.02
2019-05-06T12:09:57.642Z,30.14
2019-05-06T12:10:57.624Z,30.94
2019-05-06T12:11:57.615Z,30.55
2019-05-06T12:12:57.601Z,30.98
2019-05-06T12:13:57.590Z,30.98
2019-05-06T12:14:57.603Z,32.50
2019-05-06T12:15:57.568Z,32.60
2019-05-06T12:16:57.570Z,32.21
2019-05-06T12:17:57.547Z,31.51
2019-05-06T12:18:59.776Z,30.90
2019-05-06T12:19:57.564Z,31.51
2019-05-06T12:21:08.202Z,31.00
2019-05-06T12:21:58.501Z,31.73
2019-05-06T12:22:57.491Z,32.13
2019-05-06T12:23:57.482Z,32.23
2019-05-06T12:24:57.469Z,32.33
2019-05-06T12:25:57.526Z,32.73
2019-05-06T12:26:57.451Z,33.14
2019-05-06T12:27:57.446Z,33.05
2019-05-06T12:28:57.427Z,33.15
2019-05-06T12:29:57.414Z,33.26
2019-05-06T12:30:57.415Z,33.05
2019-05-06T12:31:57.393Z,33.36
2019-05-06T12:32:57.380Z,32.95
2019-05-06T12:33:57.372Z,32.95
2019-05-06T12:34:57.361Z,33.05
2019-05-06T12:35:57.359Z,33.36
2019-05-06T12:36:57.341Z,33.56
2019-05-06T12:37:57.326Z,34.37
2019-05-06T12:38:57.317Z,34.79
2019-05-06T12:39:57.310Z,34.69
2019-05-06T12:40:59.848Z,34.89
2019-05-06T12:41:57.283Z,34.59
2019-05-06T12:42:57.273Z,33.67
2019-05-06T12:43:57.260Z,33.58
2019-05-06T12:44:57.249Z,33.49
2019-05-06T12:45:57.249Z,33.47
2019-05-06T12:46:59.766Z,34.20
2019-05-06T12:47:57.217Z,34.50
2019-05-06T12:48:57.220Z,33.49
2019-05-06T12:49:57.198Z,34.70
2019-05-06T12:50:57.198Z,33.29
2019-05-06T12:51:57.172Z,35.01
2019-05-06T12:52:57.865Z,34.60